Time;durP1;ratioP1;P1;durP2;ratioP2;P2;SDS_P1;SDS_P2;PMS_P1;PMS_P2;Temp;Humidity;BMP_temperature;BMP_pressure;BME280_temperature;BME280_humidity;BME280_pressure;Samples;Min_cycle;Max_cycle;Signal;HPM_P1;HPM_P2
2022/05/15 00:00:40;;;;;;;;;4.80;4.80;;;;;22.02;38.04;101172.31;2087896;28;47697;-55
2022/05/15 00:01:41;;;;;;;;;5.00;4.00;;;;;22.03;38.08;101169.50;2086021;28;47055;-55
2022/05/15 00:02:41;;;;;;;;;5.75;5.75;;;;;22.03;38.08;101163.22;2054525;28;1124243;-51
2022/05/15 00:03:42;;;;;;;;;5.50;5.50;;;;;22.04;38.03;101162.25;2094050;28;45813;-53
2022/05/15 00:04:43;;;;;;;;;6.20;5.80;;;;;22.04;37.88;101159.56;2087542;28;47910;-54
2022/05/15 00:05:45;;;;;;;;;6.00;5.00;;;;;22.03;38.01;101157.81;2088284;28;47968;-54
2022/05/15 00:06:46;;;;;;;;;4.80;4.00;;;;;22.04;38.13;101160.41;2088487;28;47818;-53
2022/05/15 00:07:46;;;;;;;;;5.50;5.50;;;;;22.04;38.11;101146.03;2087136;28;47641;-53
2022/05/15 00:08:46;;;;;;;;;4.25;4.25;;;;;22.04;38.27;101149.63;2088563;28;48032;-54
2022/05/15 00:09:47;;;;;;;;;5.75;4.75;;;;;22.04;38.16;101146.03;2087387;28;47858;-55
2022/05/15 00:10:48;;;;;;;;;4.25;3.25;;;;;22.04;38.22;101144.22;2088458;28;47818;-52
2022/05/15 00:11:48;;;;;;;;;5.50;5.50;;;;;22.05;38.38;101147.78;2088383;28;47841;-53
2022/05/15 00:12:49;;;;;;;;;2.75;2.75;;;;;22.05;37.71;101139.66;2087484;28;47460;-55
2022/05/15 00:13:50;;;;;;;;;5.75;4.50;;;;;22.06;38.19;101141.44;2088452;28;46454;-53
2022/05/15 00:14:50;;;;;;;;;9.00;5.00;;;;;22.06;37.74;101130.63;2088428;28;47581;-53
2022/05/15 00:15:51;;;;;;;;;3.00;3.00;;;;;22.06;37.78;101130.63;2087376;28;47387;-51
2022/05/15 00:16:51;;;;;;;;;5.67;5.00;;;;;22.07;37.98;101129.66;2086776;28;47963;-54
2022/05/15 00:17:52;;;;;;;;;4.00;4.00;;;;;22.08;37.65;101138.63;2086038;28;47370;-55
2022/05/15 00:18:52;;;;;;;;;4.25;4.25;;;;;22.08;38.32;101136.78;2088533;27;47954;-55
2022/05/15 00:19:53;;;;;;;;;4.25;4.25;;;;;22.09;37.78;101135.81;2088124;28;47416;-53
2022/05/15 00:20:53;;;;;;;;;5.00;5.00;;;;;22.09;37.78;101141.22;2087443;28;47876;-52
2022/05/15 00:21:54;;;;;;;;;3.25;3.25;;;;;22.10;38.10;101131.28;2088472;28;47609;-54
2022/05/15 00:22:54;;;;;;;;;5.25;5.00;;;;;22.11;38.26;101133.06;2087822;28;47172;-54
2022/05/15 00:23:55;;;;;;;;;4.75;4.75;;;;;22.12;38.27;101135.66;2086880;28;47275;-54
2022/05/15 00:24:56;;;;;;;;;2.25;2.25;;;;;22.12;38.12;101127.56;2087580;28;47480;-54
2022/05/15 00:25:57;;;;;;;;;6.00;4.25;;;;;22.12;37.61;101132.97;2086365;28;47822;-52
2022/05/15 00:26:57;;;;;;;;;5.20;5.20;;;;;22.13;37.92;101128.41;2088522;28;47684;-52
2022/05/15 00:27:59;;;;;;;;;5.50;3.75;;;;;22.13;38.25;101133.81;2095156;28;48069;-52
2022/05/15 00:28:59;;;;;;;;;4.00;3.40;;;;;22.13;38.17;101132.00;2095171;28;48142;-48
2022/05/15 00:30:00;;;;;;;;;4.25;3.25;;;;;22.13;37.62;101126.59;2088674;28;47727;-54
2022/05/15 00:31:02;;;;;;;;;5.50;5.50;;;;;22.13;37.66;101125.72;2087095;28;47904;-54
2022/05/15 00:32:03;;;;;;;;;3.40;3.20;;;;;22.13;37.66;101125.72;2088969;28;47288;-55
2022/05/15 00:33:05;;;;;;;;;2.00;2.00;;;;;22.12;37.73;101124.84;2094111;28;47596;-55
2022/05/15 00:34:05;;;;;;;;;4.00;4.00;;;;;22.13;37.63;101126.59;2087404;28;47489;-54
2022/05/15 00:35:06;;;;;;;;;6.75;4.00;;;;;22.13;37.73;101123.88;2088373;28;47667;-53
2022/05/15 00:36:07;;;;;;;;;4.00;4.00;;;;;22.13;38.19;101123.00;2087428;28;47247;-54
2022/05/15 00:37:07;;;;;;;;;4.00;4.00;;;;;22.13;37.71;101128.41;2083236;28;47286;-53
2022/05/15 00:38:09;;;;;;;;;3.33;3.00;;;;;22.12;37.78;101122.16;2088442;28;47701;-54
2022/05/15 00:39:10;;;;;;;;;3.25;3.25;;;;;22.13;37.77;101125.72;2087528;28;47673;-55
2022/05/15 00:40:12;;;;;;;;;7.00;7.00;;;;;22.12;37.94;101124.84;2088583;28;47455;-54
2022/05/15 00:41:13;;;;;;;;;4.60;4.60;;;;;22.12;37.67;101126.69;2088599;28;47971;-53
2022/05/15 00:42:14;;;;;;;;;4.80;4.80;;;;;22.10;37.84;101113.22;2087543;28;48233;-55
2022/05/15 00:43:48;;;;;;;;;5.67;5.00;;;;;22.09;38.09;101124.16;2088275;28;48142;-54
2022/05/15 00:44:49;;;;;;;;;3.60;3.60;;;;;22.07;37.93;101121.53;2087215;28;47580;-54
2022/05/15 00:45:49;;;;;;;;;2.75;2.75;;;;;22.06;37.96;101114.41;2088643;28;47558;-53
2022/05/15 00:46:50;;;;;;;;;5.25;5.00;;;;;22.06;38.40;101122.50;2087069;28;47384;-54
2022/05/15 00:47:51;;;;;;;;;4.00;4.00;;;;;22.05;38.43;101120.75;2087383;28;48015;-53
2022/05/15 00:48:52;;;;;;;;;3.00;3.00;;;;;22.04;38.18;101125.28;2087374;28;48358;-52
2022/05/15 00:49:54;;;;;;;;;5.20;4.40;;;;;22.04;37.96;101119.88;2087993;28;47653;-53
2022/05/15 00:50:56;;;;;;;;;3.50;3.50;;;;;22.04;37.91;101122.59;2088570;28;47659;-54
2022/05/15 00:52:01;;;;;;;;;5.00;5.00;;;;;22.04;37.77;101110.91;2086999;28;47881;-51
2022/05/15 00:53:07;;;;;;;;;3.00;3.00;;;;;22.04;38.28;101110.91;2088255;28;47846;-55
2022/05/15 00:54:22;;;;;;;;;3.50;3.50;;;;;22.05;38.04;101109.94;2088355;28;47746;-54
2022/05/15 00:55:32;;;;;;;;;3.00;3.00;;;;;22.04;38.44;101110.91;2087686;28;48041;-52
2022/05/15 00:56:37;;;;;;;;;4.00;3.40;;;;;22.04;37.92;101111.78;2078268;28;48115;-53
2022/05/15 00:58:03;;;;;;;;;4.40;4.00;;;;;22.04;37.75;101106.38;2085457;28;47380;-49
2022/05/15 00:59:10;;;;;;;;;4.80;4.80;;;;;22.04;38.51;101100.09;2084372;28;47870;-52
2022/05/15 01:00:17;;;;;;;;;3.00;3.00;;;;;22.03;37.89;101098.34;2087128;28;47262;-52
2022/05/15 01:01:18;;;;;;;;;5.25;5.25;;;;;22.03;38.28;101101.06;2087415;28;47864;-53
2022/05/15 01:02:22;;;;;;;;;3.60;3.60;;;;;22.03;38.31;101093.81;2088803;28;47620;-51
2022/05/15 01:03:22;;;;;;;;;3.40;3.40;;;;;22.03;38.21;101098.34;2088486;28;47434;-53
2022/05/15 01:04:23;;;;;;;;;6.25;3.75;;;;;22.02;38.19;101102.91;2089609;28;47791;-53
2022/05/15 01:05:23;;;;;;;;;5.33;5.33;;;;;22.02;38.71;101100.19;2089568;28;48000;-52
2022/05/15 01:06:24;;;;;;;;;4.00;4.00;;;;;22.02;37.97;101094.78;2088729;28;47659;-52
2022/05/15 01:07:24;;;;;;;;;3.75;3.75;;;;;22.02;38.28;101093.94;2089466;28;47150;-53
2022/05/15 01:08:27;;;;;;;;;3.00;3.00;;;;;22.01;38.07;101090.34;2089265;28;47471;-52
2022/05/15 01:09:29;;;;;;;;;3.60;3.60;;;;;22.00;37.97;101099.44;2079223;28;47964;-52
2022/05/15 01:10:29;;;;;;;;;4.00;4.00;;;;;22.00;38.16;101094.03;2079908;28;48490;-53
2022/05/15 01:11:33;;;;;;;;;3.67;3.67;;;;;21.99;38.81;101092.28;2088990;28;47571;-55
2022/05/15 01:12:38;;;;;;;;;5.50;5.50;;;;;21.99;38.39;101094.13;2086214;28;47851;-53
2022/05/15 01:13:42;;;;;;;;;6.25;3.00;;;;;21.99;38.04;101094.13;2085868;28;47630;-53
2022/05/15 01:14:45;;;;;;;;;3.00;3.00;;;;;21.98;38.11;101086.97;2087525;28;47762;-53
2022/05/15 01:15:47;;;;;;;;;5.00;5.00;;;;;21.97;38.72;101090.63;2087437;28;47473;-49
2022/05/15 01:16:47;;;;;;;;;14.80;13.20;;;;;21.97;38.41;101087.91;2088762;28;47635;-53
2022/05/15 01:17:48;;;;;;;;;20.25;19.25;;;;;21.96;38.83;101092.47;2088437;28;47566;-55
2022/05/15 01:18:49;;;;;;;;;25.50;23.00;;;;;21.95;38.54;101082.63;2088130;28;47594;-52
2022/05/15 01:19:49;;;;;;;;;27.25;25.75;;;;;21.95;38.51;101084.44;2088712;28;47904;-53
2022/05/15 01:20:55;;;;;;;;;43.50;33.50;;;;;21.95;38.70;101088.03;2088227;28;47860;-53
2022/05/15 01:21:57;;;;;;;;;40.80;32.20;;;;;21.95;38.19;101088.03;2089091;28;46872;-51
2022/05/15 01:22:59;;;;;;;;;37.20;33.20;;;;;21.95;38.41;101079.91;2089187;28;47407;-51
2022/05/15 01:24:02;;;;;;;;;53.40;43.60;;;;;21.95;38.40;101081.75;2088034;28;46757;-50
2022/05/15 01:25:06;;;;;;;;;57.80;45.60;;;;;21.94;38.90;101083.59;2090968;28;47633;-50
2022/05/15 01:26:06;;;;;;;;;57.00;46.60;;;;;21.94;38.38;101075.47;2088260;28;47594;-52
2022/05/15 01:27:10;;;;;;;;;60.00;46.75;;;;;21.94;38.48;101080.00;2089429;28;47519;-52
2022/05/15 01:28:16;;;;;;;;;61.00;49.40;;;;;21.93;38.29;101078.28;2087111;28;47719;-51
2022/05/15 01:29:18;;;;;;;;;61.40;49.00;;;;;21.93;38.22;101084.56;2087077;28;48563;-54
2022/05/15 01:30:19;;;;;;;;;58.00;46.80;;;;;21.93;38.66;101084.56;2089776;28;47970;-54
2022/05/15 01:31:20;;;;;;;;;54.25;42.00;;;;;21.93;38.66;101080.97;2088263;28;47460;-53
2022/05/15 01:32:20;;;;;;;;;47.00;38.50;;;;;21.92;38.80;101080.13;2090784;28;47703;-52
2022/05/15 01:33:22;;;;;;;;;45.00;38.00;;;;;21.92;38.48;101080.13;2093166;28;47539;-51
2022/05/15 01:34:22;;;;;;;;;40.60;33.40;;;;;21.91;38.77;101080.22;2088443;28;47493;-54
2022/05/15 01:35:23;;;;;;;;;33.75;30.75;;;;;21.91;38.37;101083.78;2089401;28;47893;-52
2022/05/15 01:36:24;;;;;;;;;29.00;27.00;;;;;21.92;39.06;101090.06;2089729;28;46687;-55
2022/05/15 01:37:25;;;;;;;;;28.80;28.00;;;;;21.91;38.57;101085.63;2088184;28;47607;-55
2022/05/15 01:38:25;;;;;;;;;28.50;28.00;;;;;21.90;38.66;101078.47;2089511;28;47728;-54
2022/05/15 01:39:29;;;;;;;;;24.25;22.50;;;;;21.89;38.43;101083.03;2089263;28;47778;-54
2022/05/15 01:40:30;;;;;;;;;27.80;27.40;;;;;21.88;38.36;101077.72;2088315;28;48010;-54
2022/05/15 01:41:30;;;;;;;;;31.00;27.25;;;;;21.86;39.01;101077.81;2089221;28;47605;-57
2022/05/15 01:42:31;;;;;;;;;24.25;19.75;;;;;21.86;38.67;101074.25;2088730;28;47769;-55
2022/05/15 01:43:31;;;;;;;;;23.50;21.00;;;;;21.85;38.57;101077.88;2088495;28;47396;-53
2022/05/15 01:44:32;;;;;;;;;21.75;18.50;;;;;21.84;38.42;101076.16;2089487;28;48057;-52
2022/05/15 01:45:33;;;;;;;;;20.50;18.75;;;;;21.82;38.44;101073.56;2087401;28;47398;-53
2022/05/15 01:46:33;;;;;;;;;16.75;15.75;;;;;21.83;38.51;101077.13;2088604;28;47718;-54
2022/05/15 01:47:34;;;;;;;;;15.00;14.00;;;;;21.82;39.02;101078.94;2089030;28;47428;-56
2022/05/15 01:48:34;;;;;;;;;12.75;12.25;;;;;21.81;38.85;101065.53;2088269;28;47811;-51
2022/05/15 01:49:36;;;;;;;;;11.00;11.00;;;;;21.82;38.49;101069.97;2089318;28;47712;-54
2022/05/15 01:50:37;;;;;;;;;9.80;9.80;;;;;21.81;39.06;101070.94;2089157;28;47582;-55
2022/05/15 01:51:39;;;;;;;;;11.25;10.75;;;;;21.82;38.80;101069.97;2088428;28;47684;-53
2022/05/15 01:52:41;;;;;;;;;11.40;9.80;;;;;21.81;38.84;101061.00;2089247;28;48401;-53
2022/05/15 01:53:41;;;;;;;;;6.40;6.40;;;;;21.81;39.13;101066.41;2088136;28;47752;-53
2022/05/15 01:54:42;;;;;;;;;7.33;6.00;;;;;21.81;38.54;101071.81;2089431;28;47449;-55
2022/05/15 01:55:42;;;;;;;;;7.00;6.25;;;;;21.81;38.49;101069.13;2089151;28;47963;-54
2022/05/15 01:56:43;;;;;;;;;10.50;9.00;;;;;21.81;39.06;101060.13;2088470;28;47387;-54
2022/05/15 01:57:43;;;;;;;;;4.00;4.00;;;;;21.80;38.84;101061.97;2089114;28;48101;-53
2022/05/15 01:58:44;;;;;;;;;4.00;4.00;;;;;21.80;38.98;101059.28;2089315;28;47595;-55
2022/05/15 01:59:44;;;;;;;;;4.00;4.00;;;;;21.80;38.79;101061.97;2088350;28;47772;-54
2022/05/15 02:00:45;;;;;;;;;7.00;5.33;;;;;21.80;38.59;101059.28;2087943;28;47820;-54
2022/05/15 02:01:45;;;;;;;;;5.75;5.75;;;;;21.80;38.90;101064.69;2087051;28;47675;-52
2022/05/15 02:02:48;;;;;;;;;5.00;5.00;;;;;21.80;39.14;101063.81;2088779;28;47796;-53
2022/05/15 02:03:48;;;;;;;;;5.80;5.80;;;;;21.80;38.65;101063.81;2089213;28;46742;-51
2022/05/15 02:04:49;;;;;;;;;7.00;7.00;;;;;21.80;38.91;101063.81;2088362;28;47942;-54
2022/05/15 02:05:50;;;;;;;;;5.00;5.00;;;;;21.80;38.85;101061.09;2102989;28;47527;-55
2022/05/15 02:06:50;;;;;;;;;5.00;5.00;;;;;21.79;38.60;101060.25;2103145;28;47500;-53
2022/05/15 02:07:51;;;;;;;;;5.50;4.25;;;;;21.80;39.13;101061.09;2086769;28;47771;-53
2022/05/15 02:08:51;;;;;;;;;7.75;5.25;;;;;21.79;38.65;101054.84;2087849;28;47417;-53
2022/05/15 02:09:52;;;;;;;;;4.67;4.67;;;;;21.78;38.66;101055.81;2088708;28;46700;-54
2022/05/15 02:10:52;;;;;;;;;5.67;4.33;;;;;21.79;39.07;101045.88;2088620;28;47409;-52
2022/05/15 02:11:52;;;;;;;;;6.25;5.00;;;;;21.79;39.00;101053.97;2089071;28;48141;-52
2022/05/15 02:12:53;;;;;;;;;8.50;6.25;;;;;21.79;38.70;101053.97;2087413;28;47301;-54
2022/05/15 02:13:53;;;;;;;;;5.25;4.50;;;;;21.79;38.88;101051.28;2087921;28;48070;-51
2022/05/15 02:14:54;;;;;;;;;5.25;5.25;;;;;21.77;39.36;101054.06;2088759;28;47287;-55
2022/05/15 02:15:54;;;;;;;;;4.50;4.50;;;;;21.76;38.83;101043.38;2088153;28;46736;-54
2022/05/15 02:16:55;;;;;;;;;5.50;5.50;;;;;21.76;38.80;101044.22;2088861;28;47633;-54
2022/05/15 02:17:56;;;;;;;;;4.00;4.00;;;;;21.76;39.43;101049.63;2096080;28;47887;-53
2022/05/15 02:18:57;;;;;;;;;3.25;3.25;;;;;21.75;39.52;101042.50;2096363;28;47528;-54
2022/05/15 02:19:57;;;;;;;;;4.75;4.75;;;;;21.76;39.30;101040.66;2089108;28;47129;-54
2022/05/15 02:20:58;;;;;;;;;6.00;4.50;;;;;21.75;39.53;101039.78;2087822;28;47760;-53
2022/05/15 02:21:59;;;;;;;;;5.00;5.00;;;;;21.76;39.30;101035.25;2088991;28;48294;-54
2022/05/15 02:22:59;;;;;;;;;5.75;5.00;;;;;21.74;39.17;101035.38;2088897;28;47105;-55
2022/05/15 02:24:00;;;;;;;;;6.25;6.00;;;;;21.75;38.91;101037.09;2088012;28;47897;-55
2022/05/15 02:25:01;;;;;;;;;5.00;5.00;;;;;21.74;39.52;101032.66;2089407;28;47665;-55
2022/05/15 02:26:01;;;;;;;;;3.50;3.00;;;;;21.73;39.14;101033.63;2088099;28;47539;-52
2022/05/15 02:27:02;;;;;;;;;6.00;6.00;;;;;21.73;39.27;101031.78;2087694;28;47278;-53
2022/05/15 02:28:02;;;;;;;;;5.00;5.00;;;;;21.74;39.64;101038.06;2087877;28;46192;-50
2022/05/15 02:29:04;;;;;;;;;5.25;5.25;;;;;21.74;39.42;101029.97;2086993;28;45521;-53
2022/05/15 02:30:06;;;;;;;;;3.75;3.75;;;;;21.72;39.29;101032.75;2089322;28;48215;-55
2022/05/15 02:31:07;;;;;;;;;6.25;5.75;;;;;21.72;39.26;101029.16;2087953;28;48530;-51
2022/05/15 02:32:08;;;;;;;;;5.00;5.00;;;;;21.70;39.58;101023.84;2088856;28;47560;-54
2022/05/15 02:33:09;;;;;;;;;5.40;5.00;;;;;21.69;39.67;101021.25;2092953;28;47381;-52
2022/05/15 02:34:09;;;;;;;;;6.00;6.00;;;;;21.68;39.02;101022.22;2087943;28;47393;-54
2022/05/15 02:35:10;;;;;;;;;7.67;7.00;;;;;21.67;39.62;101024.06;2088523;28;47591;-52
2022/05/15 02:36:11;;;;;;;;;6.25;4.75;;;;;21.65;39.47;101028.69;2088416;28;47312;-53
2022/05/15 02:37:11;;;;;;;;;4.50;4.50;;;;;21.64;39.82;101029.66;2088006;28;47460;-54
2022/05/15 02:38:11;;;;;;;;;4.25;4.25;;;;;21.64;39.79;101026.97;2085750;28;47330;-54
2022/05/15 02:39:12;;;;;;;;;5.25;4.75;;;;;21.63;39.16;101027.94;2088045;28;47806;-54
2022/05/15 02:40:16;;;;;;;;;5.75;5.75;;;;;21.63;39.92;101018.97;2088804;28;47882;-51
2022/05/15 02:41:17;;;;;;;;;5.80;5.80;;;;;21.63;39.29;101027.06;2089433;28;47166;-52
2022/05/15 02:42:20;;;;;;;;;4.75;4.75;;;;;21.62;39.77;101034.28;2087627;28;47610;-53
2022/05/15 02:43:21;;;;;;;;;4.40;4.40;;;;;21.60;39.46;101025.44;2089161;28;47690;-54
2022/05/15 02:44:21;;;;;;;;;6.25;4.25;;;;;21.60;39.48;101033.53;2089115;28;47719;-53
2022/05/15 02:45:22;;;;;;;;;6.00;6.00;;;;;21.59;39.56;101026.38;2088031;28;47698;-55
2022/05/15 02:46:22;;;;;;;;;7.00;6.60;;;;;21.58;39.60;101027.31;2089106;28;47962;-49
2022/05/15 02:47:24;;;;;;;;;4.00;4.00;;;;;21.59;39.86;101028.19;2088048;28;47705;-54
2022/05/15 02:51:05;;;;;;;;;5.60;4.60;;;;;21.57;39.94;101028.28;2089341;28;47548;-52
2022/05/15 02:52:06;;;;;;;;;5.80;5.00;;;;;21.56;39.51;101033.78;2088145;28;47919;-53
2022/05/15 02:53:08;;;;;;;;;6.60;6.40;;;;;21.56;39.56;101020.28;2089093;28;47432;-54
2022/05/15 02:54:08;;;;;;;;;4.20;4.20;;;;;21.55;39.64;101026.66;2089253;28;47447;-52
2022/05/15 02:55:10;;;;;;;;;6.00;6.00;;;;;21.55;39.60;101032.94;2087673;28;47490;-52
2022/05/15 02:56:20;;;;;;;;;6.60;6.60;;;;;21.56;39.61;101041.91;2088918;28;47517;-50
2022/05/15 02:57:20;;;;;;;;;7.00;5.40;;;;;21.54;39.79;101038.44;2089634;28;47644;-53
2022/05/15 02:58:20;;;;;;;;;6.25;6.25;;;;;21.53;40.04;101040.25;2087597;28;47605;-50
2022/05/15 02:59:21;;;;;;;;;6.50;6.50;;;;;21.53;40.23;101044.81;2089569;28;48014;-54
2022/05/15 03:00:24;;;;;;;;;8.25;6.50;;;;;21.52;40.31;101046.63;2089630;28;47489;-53
2022/05/15 03:01:25;;;;;;;;;7.00;7.00;;;;;21.51;39.68;101046.72;2087798;28;47444;-53
2022/05/15 03:02:25;;;;;;;;;6.75;6.00;;;;;21.47;40.15;101042.47;2089361;28;47638;-54
2022/05/15 03:03:26;;;;;;;;;6.50;6.25;;;;;21.44;40.33;101044.41;2088532;28;48040;-54
2022/05/15 03:04:28;;;;;;;;;6.60;6.20;;;;;21.43;40.37;101045.34;2088602;28;47569;-54
2022/05/15 03:05:28;;;;;;;;;6.80;6.40;;;;;21.40;39.93;101040.16;2089790;28;47737;-53
2022/05/15 03:06:29;;;;;;;;;7.50;7.50;;;;;21.37;40.10;101045.75;2087135;28;47695;-54
2022/05/15 03:07:29;;;;;;;;;7.25;6.50;;;;;21.36;40.62;101037.75;2089183;28;47717;-52
2022/05/15 03:08:32;;;;;;;;;7.25;7.25;;;;;21.34;40.81;101036.94;2089413;28;47949;-53
2022/05/15 03:09:33;;;;;;;;;7.40;7.20;;;;;21.32;40.42;101044.28;2087673;28;47791;-54
2022/05/15 03:10:34;;;;;;;;;7.80;7.80;;;;;21.28;40.57;101032.81;2089319;28;47622;-53
2022/05/15 03:11:34;;;;;;;;;8.50;8.00;;;;;21.27;40.84;101041.00;2088678;28;48036;-54
2022/05/15 03:12:35;;;;;;;;;10.50;10.50;;;;;21.23;40.64;101029.50;2086840;28;47716;-51
2022/05/15 03:13:35;;;;;;;;;4.25;4.00;;;;;21.22;41.16;101035.88;2088527;28;47700;-53
2022/05/15 03:14:36;;;;;;;;;8.00;8.00;;;;;21.20;40.95;101037.75;2087873;28;47635;-55
2022/05/15 03:15:38;;;;;;;;;6.50;6.00;;;;;21.18;41.15;101034.28;2089238;28;47229;-50
2022/05/15 03:16:39;;;;;;;;;6.60;6.60;;;;;21.16;40.97;101033.53;2088739;28;47552;-52
2022/05/15 03:17:41;;;;;;;;;9.80;8.20;;;;;21.17;41.19;101040.66;2087554;28;47414;-53
2022/05/15 03:18:47;;;;;;;;;7.80;7.80;;;;;21.17;41.08;101043.34;2088919;28;47226;-50
2022/05/15 03:19:48;;;;;;;;;6.80;6.00;;;;;21.17;40.66;101036.13;2088750;28;47390;-54
2022/05/15 03:20:49;;;;;;;;;11.50;10.00;;;;;21.17;40.58;101035.25;2087770;28;48395;-54
2022/05/15 03:21:50;;;;;;;;;8.00;8.00;;;;;21.16;40.80;101037.09;2088494;28;47364;-54
2022/05/15 03:22:50;;;;;;;;;7.50;7.00;;;;;21.15;40.87;101035.34;2088485;28;47263;-52
2022/05/15 03:23:50;;;;;;;;;5.50;5.50;;;;;21.14;40.74;101025.53;2087877;28;48485;-52
2022/05/15 03:24:51;;;;;;;;;8.25;7.25;;;;;21.15;41.20;101031.78;2088805;28;47570;-53
2022/05/15 03:25:52;;;;;;;;;7.25;7.25;;;;;21.14;41.12;101028.22;2087901;28;47449;-52
2022/05/15 03:26:52;;;;;;;;;6.80;6.80;;;;;21.12;41.53;101021.19;2089036;28;47445;-52
2022/05/15 03:27:54;;;;;;;;;5.75;5.75;;;;;21.10;41.44;101018.59;2087569;28;47530;-53
2022/05/15 03:28:54;;;;;;;;;9.00;8.20;;;;;21.11;41.26;101027.53;2088947;28;48002;-53
2022/05/15 03:29:56;;;;;;;;;7.00;7.00;;;;;21.10;41.35;101018.59;2088798;28;46540;-54
2022/05/15 03:30:57;;;;;;;;;8.40;7.20;;;;;21.08;41.02;101019.63;2087779;28;47569;-50
2022/05/15 03:31:57;;;;;;;;;7.75;6.75;;;;;21.07;41.10;101021.44;2088426;28;47248;-53
2022/05/15 03:32:58;;;;;;;;;7.00;6.25;;;;;21.07;40.80;101024.16;2094507;28;47220;-53
2022/05/15 03:33:58;;;;;;;;;7.25;7.25;;;;;21.07;41.36;101020.56;2087567;28;47474;-52
2022/05/15 03:34:58;;;;;;;;;9.75;8.75;;;;;21.07;41.52;101017.88;2088615;28;48031;-55
2022/05/15 03:35:59;;;;;;;;;10.50;9.00;;;;;21.05;41.51;101017.97;2087993;28;47374;-55
2022/05/15 03:37:00;;;;;;;;;8.00;8.00;;;;;21.05;41.43;101011.72;2088401;28;47550;-55
2022/05/15 03:38:01;;;;;;;;;8.60;7.80;;;;;21.03;41.02;101017.19;2088445;28;47749;-53
2022/05/15 03:39:01;;;;;;;;;9.00;9.00;;;;;21.04;41.05;101015.38;2087757;28;47452;-55
2022/05/15 03:40:02;;;;;;;;;9.25;9.25;;;;;21.04;41.37;101018.06;2088280;28;47779;-52
2022/05/15 03:41:03;;;;;;;;;5.50;5.50;;;;;21.02;41.63;101007.38;2086412;28;47680;-54
2022/05/15 03:42:04;;;;;;;;;8.00;7.50;;;;;21.01;41.56;101008.34;2086186;28;47670;-52
2022/05/15 03:43:04;;;;;;;;;7.25;7.25;;;;;21.01;41.72;101016.44;2088530;28;46657;-51
2022/05/15 03:44:06;;;;;;;;;6.25;6.25;;;;;21.01;41.82;101012.88;2087918;28;47470;-55
2022/05/15 03:45:06;;;;;;;;;9.20;9.20;;;;;21.00;41.36;101008.44;2087801;27;47851;-53
2022/05/15 03:46:07;;;;;;;;;6.50;6.50;;;;;21.00;41.84;101003.91;2088366;28;47247;-53
2022/05/15 03:47:08;;;;;;;;;7.75;7.25;;;;;20.98;41.63;101004.97;2087187;28;47364;-50
2022/05/15 03:48:09;;;;;;;;;8.00;8.00;;;;;20.97;41.41;101008.63;2085748;28;47805;-53
2022/05/15 03:49:11;;;;;;;;;8.75;8.50;;;;;20.97;41.71;101006.78;2087059;28;46156;-54
2022/05/15 03:50:12;;;;;;;;;7.20;7.20;;;;;20.96;41.86;101005.06;2087112;28;47558;-54
2022/05/15 03:51:13;;;;;;;;;6.25;6.25;;;;;20.96;41.86;101002.38;2088237;28;47775;-52
2022/05/15 03:52:14;;;;;;;;;8.40;8.40;;;;;20.94;41.74;101000.69;2088019;28;47810;-53
2022/05/15 03:53:14;;;;;;;;;8.50;8.50;;;;;20.92;41.70;101003.50;2087150;28;47472;-52
2022/05/15 03:54:15;;;;;;;;;7.00;7.00;;;;;20.90;41.64;100999.16;2088311;28;47275;-52
2022/05/15 03:55:16;;;;;;;;;9.25;9.25;;;;;20.87;42.16;101000.22;2086938;28;47803;-52
2022/05/15 03:56:17;;;;;;;;;8.00;8.00;;;;;20.85;41.62;101002.13;2088530;28;48091;-51
2022/05/15 03:57:19;;;;;;;;;7.00;7.00;;;;;20.82;42.11;101003.16;2087057;28;48092;-53
2022/05/15 03:58:19;;;;;;;;;7.60;7.60;;;;;20.82;42.33;101002.28;2087433;28;47439;-52
2022/05/15 03:59:31;;;;;;;;;9.75;8.50;;;;;20.82;41.87;101005.84;2093836;28;47915;-55
2022/05/15 04:00:31;;;;;;;;;7.20;7.20;;;;;20.81;41.83;101000.56;2093569;28;47968;-54
2022/05/15 04:01:32;;;;;;;;;7.75;7.75;;;;;20.81;42.18;101000.56;2086829;28;47772;-54
2022/05/15 04:02:32;;;;;;;;;7.00;7.00;;;;;20.81;42.19;100998.72;2088046;28;47212;-55
2022/05/15 04:03:33;;;;;;;;;9.25;9.25;;;;;20.81;41.68;100993.34;2088153;28;47421;-53
2022/05/15 04:04:34;;;;;;;;;8.75;8.50;;;;;20.82;42.25;100988.81;2087342;28;47593;-52
2022/05/15 04:05:34;;;;;;;;;9.50;9.50;;;;;20.82;42.49;100995.06;2087800;28;47852;-53
2022/05/15 04:06:35;;;;;;;;;7.50;7.50;;;;;20.82;42.05;100991.50;2087307;28;47673;-52
2022/05/15 04:07:43;;;;;;;;;9.40;9.00;;;;;20.81;41.87;100990.63;2088243;28;47527;-53
2022/05/15 04:09:40;;;;;;;;;8.40;8.40;;;;;20.82;41.89;100989.66;2087997;28;47811;-50
2022/05/15 04:10:41;;;;;;;;;7.20;7.00;;;;;20.83;41.56;100993.25;2092987;28;47895;-54
2022/05/15 04:11:42;;;;;;;;;9.25;8.75;;;;;20.83;42.37;100988.75;2094847;28;47465;-52
2022/05/15 04:12:42;;;;;;;;;6.75;6.75;;;;;20.83;41.87;100990.53;2087475;28;47465;-54
2022/05/15 04:13:43;;;;;;;;;7.50;7.50;;;;;20.83;42.40;100983.34;2088003;28;46829;-54
2022/05/15 04:14:44;;;;;;;;;5.80;5.80;;;;;20.83;41.90;100985.16;2087462;28;47333;-54
2022/05/15 04:15:44;;;;;;;;;10.00;9.75;;;;;20.84;42.26;100992.31;2087747;28;46771;-52
2022/05/15 04:16:45;;;;;;;;;9.00;9.00;;;;;20.84;42.25;100984.22;2086812;28;47529;-55
2022/05/15 04:17:51;;;;;;;;;12.00;9.75;;;;;20.84;41.81;100989.63;2086273;28;47906;-55
2022/05/15 04:18:51;;;;;;;;;9.60;8.40;;;;;20.82;42.38;100986.97;2087677;28;47834;-54
2022/05/15 04:19:52;;;;;;;;;10.25;9.00;;;;;20.82;42.02;100986.97;2087994;28;48410;-53
2022/05/15 04:20:52;;;;;;;;;8.75;8.75;;;;;20.82;41.89;100997.78;2087155;28;48075;-54
2022/05/15 04:21:53;;;;;;;;;7.25;6.00;;;;;20.81;42.48;100995.16;2088259;28;47397;-53
2022/05/15 04:22:53;;;;;;;;;10.00;10.00;;;;;20.81;42.12;100995.16;2088129;28;47605;-53
2022/05/15 04:23:54;;;;;;;;;9.50;8.00;;;;;20.79;42.10;101003.34;2087342;28;47810;-51
2022/05/15 04:24:54;;;;;;;;;9.25;8.00;;;;;20.76;42.36;101000.84;2087881;28;47660;-53
2022/05/15 04:25:55;;;;;;;;;7.75;7.00;;;;;20.74;42.10;101008.16;2086419;28;47920;-51
2022/05/15 04:26:55;;;;;;;;;8.75;7.00;;;;;20.72;42.22;101009.22;2088415;28;47490;-50
2022/05/15 04:27:56;;;;;;;;;9.25;8.75;;;;;20.68;42.31;101007.66;2086213;28;47778;-53
2022/05/15 04:28:56;;;;;;;;;7.50;7.50;;;;;20.65;42.21;101006.00;2087056;28;47801;-53
2022/05/15 04:29:56;;;;;;;;;7.50;7.50;;;;;20.62;42.90;101003.50;2088773;28;47260;-53
2022/05/15 04:30:57;;;;;;;;;10.00;10.00;;;;;20.60;42.42;101010.81;2087263;28;48064;-53
2022/05/15 04:31:57;;;;;;;;;8.00;8.00;;;;;20.60;42.60;101002.72;2088641;28;47536;-53
2022/05/15 04:32:58;;;;;;;;;10.75;10.75;;;;;20.59;42.49;101001.00;2094896;28;47674;-53
2022/05/15 04:33:58;;;;;;;;;11.75;9.50;;;;;20.60;42.66;101007.25;2086952;28;47750;-55
2022/05/15 04:34:58;;;;;;;;;7.50;7.50;;;;;20.58;42.60;100993.81;2091758;28;47688;-51
2022/05/15 04:35:59;;;;;;;;;7.50;6.00;;;;;20.60;42.31;100988.38;2094353;28;48021;-54
2022/05/15 04:37:00;;;;;;;;;2.75;2.75;;;;;20.60;42.61;100985.69;2087707;28;48224;-53
2022/05/15 04:38:00;;;;;;;;;7.50;7.50;;;;;20.60;42.67;100988.38;2089789;28;47316;-54
2022/05/15 04:39:01;;;;;;;;;7.00;6.25;;;;;20.60;42.71;100982.97;2086538;28;48000;-52
2022/05/15 04:40:02;;;;;;;;;7.80;7.80;;;;;20.60;42.56;100980.28;2089687;28;47370;-54
2022/05/15 04:41:03;;;;;;;;;8.25;8.25;;;;;20.60;42.13;100981.16;2090105;28;47418;-52
2022/05/15 04:42:04;;;;;;;;;8.75;8.75;;;;;20.61;42.86;100985.59;2088720;28;47496;-54
2022/05/15 04:43:04;;;;;;;;;7.20;7.00;;;;;20.61;42.23;100979.31;2090230;28;47502;-52
2022/05/15 04:44:05;;;;;;;;;7.50;7.25;;;;;20.62;42.68;100981.94;2089082;28;47150;-52
2022/05/15 04:45:06;;;;;;;;;9.75;8.00;;;;;20.62;42.45;100984.63;2089678;28;47484;-53
2022/05/15 04:46:07;;;;;;;;;6.60;6.60;;;;;20.63;42.43;100980.97;2089258;28;48495;-53
2022/05/15 04:47:08;;;;;;;;;9.50;9.50;;;;;20.63;42.71;100980.97;2088043;28;47729;-53
2022/05/15 04:48:10;;;;;;;;;7.50;7.50;;;;;20.64;42.42;100976.44;2088558;28;47925;-53